KBIS/BIS METAR and TAF weather

Enter ICAO airport designator
Station Type Date Time Source
KBIS METAR 2021/09/19 13:52 UTC NOAA

KBIS 191352Z AUTO 23009KT 10SM CLR 21/05 A2962 RMK AO2 SLP023 T02060050 $


Station Type Date Time Source
KBIS Decoded METAR 2021/09/19 13:52 UTC NOAA

BISMARCK MUNICIPAL AIRPORT, ND, United States (KBIS) 46-47N 100-45W 503M
Sep 19, 2021 - 09:52 AM EDT / 2021.09.19 1352 UTC
Wind: from the SW (230 degrees) at 10 MPH (9 KT):0
Visibility: 10 mile(s):0
Sky conditions: clear
Temperature: 69.1 F (20.6 C)
Dew Point: 41.0 F (5.0 C)
Relative Humidity: 35%
Pressure (altimeter): 29.62 in. Hg (1003 hPa)
ob: KBIS 191352Z AUTO 23009KT 10SM CLR 21/05 A2962 RMK AO2 SLP023 T02060050
cycle: 14

Station Type Date Time Source
KBIS TAF 2021/09/19 12:27 UTC NOAA

TAF KBIS 191124Z 1912/2012 21006KT P6SM SCT150
FM191500 29010G18KT P6SM FEW250
FM191900 31010KT P6SM FEW250
FM200300 33016G25KT P6SM VCSH FEW030 SCT080

Example: see airport list